createdAt,value
2018-02-07T00:00:02.452Z,17.90
2018-02-07T00:02:30.443Z,17.90
2018-02-07T00:04:58.614Z,17.80
2018-02-07T00:07:26.655Z,17.70
2018-02-07T00:09:54.653Z,17.70
2018-02-07T00:12:22.760Z,17.70
2018-02-07T00:14:51.505Z,17.80
2018-02-07T00:17:19.528Z,17.90
2018-02-07T00:19:48.385Z,17.70
2018-02-07T00:22:16.418Z,17.70
2018-02-07T00:24:44.585Z,17.70
2018-02-07T00:27:12.707Z,17.60
2018-02-07T00:29:40.710Z,17.50
2018-02-07T00:32:09.538Z,17.40
2018-02-07T00:34:37.700Z,17.40
2018-02-07T00:37:05.688Z,17.40
2018-02-07T00:39:33.679Z,17.30
2018-02-07T00:42:01.974Z,17.30
2018-02-07T00:44:29.991Z,17.20
2018-02-07T00:46:57.990Z,17.20
2018-02-07T00:49:26.195Z,17.30
2018-02-07T00:51:54.314Z,17.20
2018-02-07T00:54:22.344Z,17.20
2018-02-07T00:56:50.452Z,17.20
2018-02-07T00:59:18.467Z,17.10
2018-02-07T01:01:46.590Z,17.10
2018-02-07T01:04:14.758Z,17.00
2018-02-07T01:06:43.516Z,17.00
2018-02-07T01:09:11.508Z,17.00
2018-02-07T01:11:40.463Z,16.70
2018-02-07T01:14:08.510Z,16.70
2018-02-07T01:16:36.550Z,16.70
2018-02-07T01:19:05.475Z,16.80
2018-02-07T01:21:33.528Z,16.80
2018-02-07T01:24:02.301Z,16.90
2018-02-07T01:26:31.335Z,17.00
2018-02-07T01:28:59.350Z,17.00
2018-02-07T01:31:27.452Z,17.10
2018-02-07T01:33:56.330Z,17.00
2018-02-07T01:49:30.637Z,17.60
2018-02-07T01:51:58.741Z,17.40
2018-02-07T01:54:26.773Z,17.20
2018-02-07T01:56:54.933Z,17.10
2018-02-07T01:59:22.916Z,17.00
2018-02-07T02:01:51.049Z,16.80
2018-02-07T02:04:19.160Z,16.80
2018-02-07T02:06:47.198Z,16.80
2018-02-07T02:09:15.194Z,16.80
2018-02-07T02:11:43.436Z,16.70
2018-02-07T02:14:11.951Z,16.80
2018-02-07T02:16:39.949Z,16.70
2018-02-07T02:19:08.117Z,16.70
2018-02-07T02:21:36.224Z,16.70
2018-02-07T02:24:04.969Z,16.70
2018-02-07T02:26:33.270Z,16.60
2018-02-07T02:29:02.041Z,16.60
2018-02-07T02:31:30.078Z,16.60
2018-02-07T02:33:58.262Z,16.50
2018-02-07T02:36:37.655Z,16.50
2018-02-07T02:39:06.564Z,16.50
2018-02-07T02:41:34.892Z,16.50
2018-02-07T02:44:04.978Z,16.50
2018-02-07T02:46:33.879Z,16.50
2018-02-07T02:54:50.339Z,16.30
2018-02-07T02:57:18.349Z,16.30
2018-02-07T02:59:47.181Z,16.40
2018-02-07T03:02:15.236Z,16.40
2018-02-07T03:04:43.249Z,16.50
2018-02-07T03:07:11.264Z,16.50
2018-02-07T03:09:40.041Z,16.50
2018-02-07T03:12:08.902Z,16.50
2018-02-07T03:14:36.896Z,16.40
2018-02-07T03:17:04.929Z,16.40
2018-02-07T03:19:33.078Z,16.40
2018-02-07T03:22:01.145Z,16.40
2018-02-07T03:24:29.290Z,16.40
2018-02-07T03:26:57.544Z,16.40
2018-02-07T03:29:25.557Z,16.50
2018-02-07T03:31:54.380Z,16.50
2018-02-07T03:34:22.507Z,16.50
2018-02-07T03:36:51.261Z,16.60
2018-02-07T03:39:19.429Z,16.60
2018-02-07T03:41:47.625Z,16.60
2018-02-07T03:44:15.682Z,16.60
2018-02-07T03:46:43.726Z,16.70
2018-02-07T03:49:11.861Z,16.70
2018-02-07T03:51:39.902Z,16.80
2018-02-07T03:54:07.951Z,17.10
2018-02-07T03:56:36.080Z,18.30
2018-02-07T03:59:04.129Z,19.80
2018-02-07T04:01:32.280Z,20.70
2018-02-07T04:04:00.440Z,20.40
2018-02-07T04:06:28.468Z,19.40
2018-02-07T04:08:56.581Z,18.90
2018-02-07T04:11:25.801Z,18.60
2018-02-07T04:13:53.852Z,18.70
2018-02-07T04:16:21.892Z,18.90
2018-02-07T04:18:50.032Z,18.90
2018-02-07T04:21:18.100Z,19.00
2018-02-07T04:23:46.148Z,18.90
2018-02-07T04:26:14.374Z,19.00
2018-02-07T04:28:42.507Z,19.10
2018-02-07T04:31:10.571Z,19.20
2018-02-07T04:33:38.706Z,19.40
2018-02-07T04:36:06.754Z,19.80
2018-02-07T04:38:34.799Z,19.90
2018-02-07T04:41:03.103Z,20.00
2018-02-07T04:43:31.129Z,20.20
2018-02-07T04:45:59.191Z,20.40
2018-02-07T04:48:28.093Z,20.30
2018-02-07T04:50:56.925Z,20.50
2018-02-07T04:53:24.968Z,20.50
2018-02-07T04:55:53.094Z,20.70
2018-02-07T04:58:21.154Z,21.00
2018-02-07T05:00:49.232Z,20.60
2018-02-07T05:03:17.486Z,20.30
2018-02-07T05:05:45.508Z,20.60
2018-02-07T05:08:14.269Z,21.10
2018-02-07T05:10:42.504Z,21.10
2018-02-07T05:13:10.505Z,21.20
2018-02-07T05:15:38.520Z,21.20
2018-02-07T05:18:07.391Z,21.60
2018-02-07T05:20:35.412Z,21.60
2018-02-07T05:23:03.426Z,21.70
2018-02-07T05:25:31.548Z,22.00
2018-02-07T05:27:59.540Z,22.40
2018-02-07T05:30:27.850Z,22.80
2018-02-07T05:32:56.012Z,22.90
2018-02-07T05:35:24.019Z,22.70
2018-02-07T05:37:52.798Z,23.00
2018-02-07T05:40:20.969Z,23.00
2018-02-07T05:42:48.980Z,23.30
2018-02-07T05:45:16.972Z,23.60
2018-02-07T05:47:45.094Z,24.00
2018-02-07T05:50:14.087Z,24.70
2018-02-07T05:52:42.079Z,24.60
2018-02-07T05:55:10.928Z,25.00
2018-02-07T05:57:38.989Z,25.00
2018-02-07T06:00:07.001Z,24.80
2018-02-07T06:02:36.038Z,24.70
2018-02-07T06:05:04.086Z,24.70
2018-02-07T06:07:32.864Z,25.00
2018-02-07T06:10:01.772Z,25.10
2018-02-07T06:12:29.831Z,25.10
2018-02-07T06:14:58.565Z,25.00
2018-02-07T06:17:26.708Z,24.90
2018-02-07T06:19:54.708Z,25.10
2018-02-07T06:22:23.525Z,24.90
2018-02-07T06:24:51.683Z,24.90
2018-02-07T06:27:19.694Z,25.00
2018-02-07T06:29:48.433Z,24.40
2018-02-07T06:32:16.750Z,24.40
2018-02-07T06:34:44.758Z,24.50
2018-02-07T06:37:12.793Z,25.90
2018-02-07T06:39:40.949Z,25.90
2018-02-07T06:42:09.118Z,25.00
2018-02-07T06:44:37.152Z,25.30
2018-02-07T06:47:05.309Z,25.80
2018-02-07T06:49:34.077Z,25.80
2018-02-07T06:52:02.224Z,25.80
2018-02-07T06:54:30.402Z,25.70
2018-02-07T06:56:58.437Z,25.70
2018-02-07T06:59:26.478Z,25.50
2018-02-07T07:01:55.428Z,25.40
2018-02-07T07:04:23.466Z,25.30
2018-02-07T07:06:52.255Z,25.30
2018-02-07T07:09:20.428Z,25.30
2018-02-07T07:11:49.256Z,25.00
2018-02-07T07:14:17.280Z,25.00
2018-02-07T07:16:46.662Z,24.90
2018-02-07T07:19:14.846Z,24.90
2018-02-07T07:21:43.101Z,25.00
2018-02-07T07:24:11.311Z,25.10
2018-02-07T07:26:39.467Z,24.80
2018-02-07T07:29:08.370Z,24.60
2018-02-07T07:31:37.363Z,25.00
2018-02-07T07:34:05.645Z,25.00
2018-02-07T07:36:33.788Z,25.00
2018-02-07T07:39:01.999Z,24.80
2018-02-07T07:41:30.915Z,24.80
2018-02-07T07:43:59.924Z,25.00
2018-02-07T07:46:28.164Z,25.00
2018-02-07T07:48:57.215Z,25.80
2018-02-07T07:51:25.469Z,25.80
2018-02-07T07:53:53.742Z,25.20
2018-02-07T07:56:21.869Z,24.80
2018-02-07T07:58:49.884Z,24.80
2018-02-07T08:01:18.191Z,24.70
2018-02-07T08:03:46.326Z,24.30
2018-02-07T08:06:14.471Z,24.20
2018-02-07T08:08:42.607Z,24.10
2018-02-07T08:11:10.626Z,24.70
2018-02-07T08:13:39.489Z,25.40
2018-02-07T08:16:07.674Z,25.40
2018-02-07T08:18:35.664Z,25.10
2018-02-07T08:21:04.461Z,24.50
2018-02-07T08:23:33.372Z,24.60
2018-02-07T08:26:01.414Z,24.50
2018-02-07T08:28:29.404Z,24.80
2018-02-07T08:30:58.370Z,24.90
2018-02-07T08:33:26.407Z,24.90
2018-02-07T08:35:54.584Z,24.90
2018-02-07T08:38:22.714Z,24.90
2018-02-07T08:40:51.509Z,25.00
2018-02-07T08:43:19.518Z,24.90
2018-02-07T08:45:47.639Z,25.20
2018-02-07T08:48:16.402Z,24.80
2018-02-07T08:50:44.404Z,24.80
2018-02-07T08:53:13.260Z,24.50
2018-02-07T08:55:41.468Z,24.40
2018-02-07T08:58:10.221Z,24.70
2018-02-07T09:00:38.392Z,24.70
2018-02-07T09:03:06.421Z,24.70
2018-02-07T09:05:35.169Z,24.30
2018-02-07T09:08:03.332Z,24.30
2018-02-07T09:10:31.366Z,24.50
2018-02-07T09:12:59.377Z,24.60
2018-02-07T09:15:27.540Z,24.50
2018-02-07T09:17:55.528Z,24.50
2018-02-07T09:20:23.543Z,24.60
2018-02-07T09:22:52.510Z,25.00
2018-02-07T09:25:20.548Z,25.00
2018-02-07T09:27:48.746Z,25.00
2018-02-07T09:30:16.914Z,24.60
2018-02-07T09:32:46.854Z,24.60
2018-02-07T09:35:15.022Z,24.60
2018-02-07T09:37:43.818Z,24.50
2018-02-07T09:40:11.965Z,24.20
2018-02-07T09:42:40.182Z,24.40
2018-02-07T09:45:09.330Z,25.00
2018-02-07T09:47:37.544Z,25.00
2018-02-07T09:50:05.747Z,25.30
2018-02-07T09:52:34.220Z,25.40
2018-02-07T09:55:03.057Z,25.60
2018-02-07T09:57:31.295Z,25.60
2018-02-07T10:00:08.887Z,25.60
2018-02-07T10:02:45.289Z,26.10
2018-02-07T10:05:13.940Z,26.10
2018-02-07T10:07:44.586Z,26.10
2018-02-07T10:10:12.777Z,26.00
2018-02-07T10:12:41.200Z,25.70
2018-02-07T10:15:10.166Z,25.40
2018-02-07T10:17:38.313Z,25.40
2018-02-07T10:20:06.425Z,25.20
2018-02-07T10:22:34.460Z,25.10
2018-02-07T10:25:02.634Z,24.80
2018-02-07T10:27:30.951Z,24.90
2018-02-07T10:29:59.292Z,24.80
2018-02-07T10:32:29.900Z,24.80
2018-02-07T10:35:00.059Z,24.70
2018-02-07T10:37:30.423Z,24.90
2018-02-07T10:39:59.011Z,25.00
2018-02-07T10:42:27.453Z,24.80
2018-02-07T10:44:57.241Z,24.90
2018-02-07T10:47:25.618Z,24.80
2018-02-07T10:49:55.569Z,24.60
2018-02-07T10:52:25.130Z,24.70
2018-02-07T10:54:57.659Z,24.70
2018-02-07T10:57:26.754Z,24.70
2018-02-07T10:59:57.090Z,24.70
2018-02-07T11:02:25.580Z,24.60
2018-02-07T11:04:56.148Z,24.60
2018-02-07T11:07:28.253Z,24.60
2018-02-07T11:09:59.896Z,24.60
2018-02-07T11:12:29.016Z,24.40
2018-02-07T11:14:57.420Z,24.40
2018-02-07T11:17:27.746Z,24.20
2018-02-07T11:20:06.594Z,24.00
2018-02-07T11:22:37.176Z,24.00
2018-02-07T11:25:05.610Z,24.10
2018-02-07T11:27:33.748Z,24.00
2018-02-07T11:30:01.793Z,24.10
2018-02-07T11:32:31.803Z,24.20
2018-02-07T11:35:00.613Z,24.20
2018-02-07T11:37:28.650Z,24.30
2018-02-07T11:39:57.530Z,24.10
2018-02-07T11:42:25.956Z,24.10
2018-02-07T11:44:54.061Z,24.00
2018-02-07T11:47:23.177Z,24.00
2018-02-07T11:49:51.275Z,24.00
2018-02-07T11:52:19.280Z,24.00
2018-02-07T11:54:47.423Z,24.00
2018-02-07T11:57:15.466Z,23.80
2018-02-07T11:59:44.208Z,24.00
2018-02-07T12:02:12.382Z,24.00
2018-02-07T12:04:40.424Z,24.10
2018-02-07T12:07:08.515Z,24.20
2018-02-07T12:09:37.780Z,24.10
2018-02-07T12:12:05.900Z,24.10
2018-02-07T12:14:34.003Z,24.10
2018-02-07T12:17:02.194Z,23.90
2018-02-07T12:19:31.098Z,23.70
2018-02-07T12:21:59.917Z,23.70
2018-02-07T12:24:28.073Z,23.70
2018-02-07T12:26:56.878Z,23.80
2018-02-07T12:29:24.902Z,23.80
2018-02-07T12:31:53.130Z,23.90
2018-02-07T12:34:21.150Z,23.80
2018-02-07T12:36:49.308Z,23.60
2018-02-07T12:39:17.507Z,23.60
2018-02-07T12:41:45.652Z,23.60
2018-02-07T12:44:13.844Z,23.60
2018-02-07T12:46:41.962Z,23.60
2018-02-07T12:49:10.102Z,23.60
2018-02-07T12:51:38.210Z,23.50
2018-02-07T12:54:06.394Z,23.40
2018-02-07T12:56:34.436Z,23.10
2018-02-07T12:59:02.541Z,23.20
2018-02-07T13:01:30.730Z,23.20
2018-02-07T13:03:58.774Z,23.20
2018-02-07T13:19:32.736Z,23.00
2018-02-07T13:22:01.008Z,23.00
2018-02-07T13:24:29.150Z,22.90
2018-02-07T13:26:57.497Z,22.80
2018-02-07T13:29:26.404Z,22.70
2018-02-07T13:31:54.520Z,22.70
2018-02-07T13:34:22.648Z,22.90
2018-02-07T13:36:51.438Z,22.90
2018-02-07T13:39:20.207Z,23.00
2018-02-07T13:41:49.190Z,23.00
2018-02-07T13:44:17.236Z,23.00
2018-02-07T13:46:45.273Z,22.90
2018-02-07T13:49:13.323Z,22.90
2018-02-07T13:51:42.128Z,22.90
2018-02-07T13:54:10.890Z,22.80
2018-02-07T13:56:39.086Z,22.80
2018-02-07T13:59:08.122Z,22.50
2018-02-07T14:01:36.161Z,22.50
2018-02-07T14:04:04.380Z,22.50
2018-02-07T14:06:32.422Z,22.50
2018-02-07T14:09:00.510Z,22.60
2018-02-07T14:11:28.716Z,22.50
2018-02-07T14:13:56.762Z,22.50
2018-02-07T14:16:24.788Z,22.40
2018-02-07T14:18:53.663Z,22.40
2018-02-07T14:21:21.767Z,22.40
2018-02-07T14:23:50.509Z,22.30
2018-02-07T14:26:18.644Z,22.30
2018-02-07T14:28:47.266Z,22.20
2018-02-07T14:31:15.310Z,22.30
2018-02-07T14:33:43.480Z,22.40
2018-02-07T14:36:11.526Z,22.30
2018-02-07T14:38:40.291Z,22.30
2018-02-07T14:41:08.425Z,22.30
2018-02-07T14:43:36.451Z,22.30
2018-02-07T14:46:05.193Z,22.30
2018-02-07T14:48:33.466Z,22.30
2018-02-07T14:51:01.515Z,22.30
2018-02-07T14:53:29.540Z,22.20
2018-02-07T14:55:57.714Z,22.20
2018-02-07T14:58:25.757Z,22.10
2018-02-07T15:00:53.810Z,22.10
2018-02-07T15:03:21.927Z,22.10
2018-02-07T15:05:49.938Z,22.10
2018-02-07T15:08:18.698Z,22.10
2018-02-07T15:10:46.852Z,22.10
2018-02-07T15:13:14.924Z,22.00
2018-02-07T15:15:43.412Z,22.00
2018-02-07T15:18:11.564Z,21.90
2018-02-07T15:20:39.576Z,21.80
2018-02-07T15:23:07.568Z,21.80
2018-02-07T15:25:36.437Z,21.80
2018-02-07T15:28:04.436Z,21.80
2018-02-07T15:30:33.180Z,21.80
2018-02-07T15:33:01.294Z,21.80
2018-02-07T15:35:30.112Z,21.90
2018-02-07T15:37:58.104Z,21.90
2018-02-07T15:40:26.287Z,21.90
2018-02-07T15:42:54.425Z,21.90
2018-02-07T15:45:22.465Z,21.90
2018-02-07T15:47:50.587Z,21.90
2018-02-07T15:50:18.731Z,21.80
2018-02-07T15:52:47.463Z,21.70
2018-02-07T15:55:15.593Z,21.70
2018-02-07T15:57:44.329Z,21.60
2018-02-07T16:00:12.325Z,21.60
2018-02-07T16:02:40.459Z,21.50
2018-02-07T16:05:08.493Z,21.50
2018-02-07T16:07:37.261Z,21.40
2018-02-07T16:10:05.413Z,21.40
2018-02-07T16:12:33.449Z,21.40
2018-02-07T16:15:01.521Z,21.40
2018-02-07T16:17:29.668Z,21.40
2018-02-07T16:19:58.433Z,21.50
2018-02-07T16:22:26.470Z,21.40
2018-02-07T16:24:54.633Z,21.50
2018-02-07T16:27:22.690Z,21.60
2018-02-07T16:29:51.494Z,21.50
2018-02-07T16:32:19.800Z,21.50
2018-02-07T16:34:47.898Z,21.50
2018-02-07T16:37:15.979Z,21.40
2018-02-07T16:39:44.111Z,21.40
2018-02-07T16:42:12.204Z,21.40
2018-02-07T16:44:40.260Z,21.40
2018-02-07T16:47:08.416Z,21.40
2018-02-07T16:49:36.490Z,21.40
2018-02-07T16:52:05.519Z,21.40
2018-02-07T16:54:33.706Z,21.40
2018-02-07T16:57:01.946Z,21.30
2018-02-07T16:59:31.295Z,21.40
2018-02-07T17:01:59.893Z,21.40
2018-02-07T17:04:28.940Z,21.30
2018-02-07T17:06:57.040Z,21.30
2018-02-07T17:09:25.236Z,21.20
2018-02-07T17:11:57.222Z,21.20
2018-02-07T17:14:25.617Z,21.20
2018-02-07T17:16:53.649Z,21.20
2018-02-07T17:19:21.796Z,21.20
2018-02-07T17:21:52.840Z,21.20
2018-02-07T17:24:21.667Z,21.20
2018-02-07T17:26:53.577Z,21.20
2018-02-07T17:29:22.287Z,21.20
2018-02-07T17:31:52.416Z,21.20
2018-02-07T17:34:20.898Z,21.20
2018-02-07T17:36:49.197Z,21.30
2018-02-07T17:39:18.858Z,21.40
2018-02-07T17:41:47.134Z,21.30
2018-02-07T17:44:15.177Z,21.30
2018-02-07T17:46:44.238Z,21.30
2018-02-07T17:49:13.079Z,21.30
2018-02-07T17:51:41.257Z,21.30
2018-02-07T17:54:09.416Z,21.40
2018-02-07T17:56:37.584Z,21.40
2018-02-07T17:59:07.368Z,21.40
2018-02-07T18:01:35.554Z,21.40
2018-02-07T18:04:04.517Z,21.40
2018-02-07T18:06:37.583Z,21.40
2018-02-07T18:09:06.198Z,21.30
2018-02-07T18:11:34.278Z,21.40
2018-02-07T18:14:09.334Z,21.40
2018-02-07T18:16:43.850Z,21.40
2018-02-07T18:19:13.029Z,21.20
2018-02-07T18:21:41.119Z,21.20
2018-02-07T18:24:17.960Z,21.30
2018-02-07T18:26:46.564Z,21.30
2018-02-07T18:29:14.630Z,21.40
2018-02-07T18:31:42.824Z,21.40
2018-02-07T18:34:10.873Z,21.40
2018-02-07T18:36:38.876Z,21.40
2018-02-07T18:39:07.049Z,21.20
2018-02-07T18:41:35.081Z,21.30
2018-02-07T18:44:03.098Z,21.30
2018-02-07T18:46:31.312Z,21.30
2018-02-07T18:49:05.742Z,21.30
2018-02-07T18:51:33.792Z,21.30
2018-02-07T18:54:02.536Z,21.10
2018-02-07T18:56:30.840Z,21.10
2018-02-07T18:58:58.996Z,21.10
2018-02-07T19:01:30.581Z,21.00
2018-02-07T19:03:59.385Z,21.10
2018-02-07T19:06:30.573Z,21.10
2018-02-07T19:08:58.709Z,21.20
2018-02-07T19:11:26.902Z,21.20
2018-02-07T19:13:56.011Z,21.20
2018-02-07T19:16:24.074Z,21.10
2018-02-07T19:18:59.370Z,21.10
2018-02-07T19:21:40.022Z,21.10
2018-02-07T19:24:13.519Z,21.00
2018-02-07T19:26:41.509Z,21.00
2018-02-07T19:29:10.281Z,20.90
2018-02-07T19:31:38.536Z,20.90
2018-02-07T19:34:06.574Z,20.90
2018-02-07T19:36:34.598Z,20.90
2018-02-07T19:39:02.747Z,20.90
2018-02-07T19:41:30.818Z,20.80
2018-02-07T19:43:58.862Z,20.90
2018-02-07T19:46:27.046Z,20.90
2018-02-07T19:48:55.102Z,20.80
2018-02-07T19:51:23.942Z,20.70
2018-02-07T19:53:52.108Z,20.70
2018-02-07T19:56:20.162Z,20.70
2018-02-07T19:58:48.203Z,20.70
2018-02-07T20:01:17.136Z,20.70
2018-02-07T20:03:45.142Z,20.60
2018-02-07T20:06:13.148Z,20.70
2018-02-07T20:08:42.038Z,20.70
2018-02-07T20:11:10.812Z,20.60
2018-02-07T20:13:39.593Z,20.50
2018-02-07T20:16:07.730Z,20.50
2018-02-07T20:18:35.735Z,20.50
2018-02-07T20:21:03.858Z,20.60
2018-02-07T20:23:32.024Z,20.60
2018-02-07T20:26:00.067Z,20.50
2018-02-07T20:28:28.857Z,20.50
2018-02-07T20:30:57.774Z,20.30
2018-02-07T20:33:25.773Z,20.30
2018-02-07T20:35:53.793Z,20.20
2018-02-07T20:38:22.698Z,20.30
2018-02-07T20:40:51.427Z,20.20
2018-02-07T20:43:19.434Z,20.20
2018-02-07T20:45:47.584Z,20.10
2018-02-07T20:48:15.584Z,20.10
2018-02-07T20:50:43.716Z,20.00
2018-02-07T20:53:11.881Z,20.00
2018-02-07T20:55:39.882Z,19.90
2018-02-07T20:58:07.920Z,20.00
2018-02-07T21:00:36.060Z,20.00
2018-02-07T21:03:04.808Z,19.90
2018-02-07T21:05:32.837Z,19.90
2018-02-07T21:08:01.008Z,19.80
2018-02-07T21:10:29.015Z,19.80
2018-02-07T21:12:57.065Z,19.80
2018-02-07T21:15:25.290Z,19.70
2018-02-07T21:17:53.326Z,19.80
2018-02-07T21:20:21.378Z,19.70
2018-02-07T21:22:49.528Z,19.60
2018-02-07T21:25:17.516Z,19.60
2018-02-07T21:27:46.252Z,19.60
2018-02-07T21:30:14.372Z,19.60
2018-02-07T21:32:43.148Z,19.50
2018-02-07T21:35:11.162Z,19.50
2018-02-07T21:37:39.282Z,19.30
2018-02-07T21:40:07.313Z,19.40
2018-02-07T21:42:35.313Z,19.40
2018-02-07T21:45:03.518Z,19.40
2018-02-07T21:47:32.265Z,19.30
2018-02-07T21:50:00.273Z,19.30
2018-02-07T21:52:29.145Z,19.30
2018-02-07T21:54:57.168Z,19.30
2018-02-07T21:57:25.165Z,19.30
2018-02-07T21:59:53.321Z,19.20
2018-02-07T22:02:23.430Z,19.20
2018-02-07T22:04:51.442Z,19.20
2018-02-07T22:07:19.589Z,19.30
2018-02-07T22:09:47.620Z,19.10
2018-02-07T22:12:16.362Z,19.20
2018-02-07T22:14:44.498Z,19.10
2018-02-07T22:17:13.232Z,19.10
2018-02-07T22:19:41.264Z,19.10
2018-02-07T22:22:10.177Z,19.10
2018-02-07T22:24:38.217Z,19.10
2018-02-07T22:27:06.948Z,19.00
2018-02-07T22:29:35.110Z,19.00
2018-02-07T22:32:03.195Z,19.00
2018-02-07T22:34:31.234Z,19.10
2018-02-07T22:37:00.080Z,19.00
2018-02-07T22:39:28.090Z,19.00
2018-02-07T22:41:56.942Z,18.80
2018-02-07T22:44:25.115Z,18.80
2018-02-07T22:46:53.140Z,18.80
2018-02-07T22:49:21.191Z,18.80
2018-02-07T22:51:50.112Z,18.80
2018-02-07T22:54:18.109Z,18.70
2018-02-07T22:56:46.135Z,18.70
2018-02-07T22:59:15.022Z,18.70
2018-02-07T23:01:43.821Z,18.60
2018-02-07T23:04:12.735Z,18.70
2018-02-07T23:06:40.883Z,18.60
2018-02-07T23:09:09.666Z,18.50
2018-02-07T23:11:37.769Z,18.50
2018-02-07T23:14:05.954Z,18.60
2018-02-07T23:16:33.993Z,18.60
2018-02-07T23:19:02.774Z,18.50
2018-02-07T23:21:31.710Z,18.40
2018-02-07T23:23:59.736Z,18.40
2018-02-07T23:26:27.737Z,18.30
2018-02-07T23:28:55.905Z,18.50
2018-02-07T23:31:24.745Z,18.30
2018-02-07T23:33:52.771Z,18.30
2018-02-07T23:36:21.006Z,18.40
2018-02-07T23:38:49.038Z,18.50
2018-02-07T23:54:09.652Z,18.80
2018-02-07T23:56:37.661Z,18.40
2018-02-07T23:59:06.401Z,18.20
